Time;durP1;ratioP1;P1;durP2;ratioP2;P2;SDS_P1;SDS_P2;PMS_P1;PMS_P2;Temp;Humidity;BMP_temperature;BMP_pressure;BME280_temperature;BME280_humidity;BME280_pressure;Samples;Min_cycle;Max_cycle;Signal;HPM_P1;HPM_P2
2022/05/28 00:00:22;;;;;;;1.88;0.73;;;;;;;;;;5140547;27;20206;-61
2022/05/28 00:02:50;;;;;;;1.50;0.80;;;;;;;;;;5140576;27;20199;-61
2022/05/28 00:05:17;;;;;;;1.05;0.93;;;;;;;;;;5140214;27;20224;-61
2022/05/28 00:07:45;;;;;;;1.60;1.00;;;;;;;;;;5139918;27;20609;-61
2022/05/28 00:10:13;;;;;;;1.80;0.85;;;;;;;;;;5139713;27;20223;-61
2022/05/28 00:12:42;;;;;;;1.52;0.90;;;;;;;;;;5139960;27;20222;-60
2022/05/28 00:15:11;;;;;;;2.17;1.00;;;;;;;;;;5140042;27;20217;-61
2022/05/28 00:17:38;;;;;;;2.08;1.02;;;;;;;;;;5140378;27;20210;-61
2022/05/28 00:20:07;;;;;;;0.95;0.80;;;;;;;;;;5140554;27;20198;-60
2022/05/28 00:22:37;;;;;;;1.30;0.98;;;;;;;;;;5140245;27;20270;-60
2022/05/28 00:25:05;;;;;;;0.98;0.80;;;;;;;;;;5140351;27;20596;-61
2022/05/28 00:27:33;;;;;;;1.17;0.75;;;;;;;;;;5140430;27;20210;-61
2022/05/28 00:30:01;;;;;;;1.33;0.90;;;;;;;;;;5140443;27;20202;-61
2022/05/28 00:32:29;;;;;;;1.42;0.90;;;;;;;;;;5139791;27;20261;-61
2022/05/28 00:34:56;;;;;;;0.80;0.70;;;;;;;;;;5140287;27;20217;-61
2022/05/28 00:37:23;;;;;;;1.27;0.88;;;;;;;;;;5140271;27;20203;-61
2022/05/28 00:39:51;;;;;;;1.42;0.90;;;;;;;;;;5139489;27;20495;-61
2022/05/28 00:42:18;;;;;;;1.98;0.80;;;;;;;;;;5138744;27;20206;-61
2022/05/28 00:44:46;;;;;;;0.73;0.70;;;;;;;;;;5140200;27;20616;-61
2022/05/28 00:47:15;;;;;;;0.80;0.80;;;;;;;;;;5140259;27;20202;-61
2022/05/28 00:49:43;;;;;;;2.00;0.98;;;;;;;;;;5140037;27;20206;-61
2022/05/28 00:52:11;;;;;;;1.42;0.90;;;;;;;;;;5139565;27;20202;-61
2022/05/28 00:54:40;;;;;;;1.30;0.95;;;;;;;;;;5140070;27;20232;-60
2022/05/28 00:57:08;;;;;;;0.95;0.80;;;;;;;;;;5138852;27;20230;-61
2022/05/28 00:59:36;;;;;;;1.45;0.88;;;;;;;;;;5139745;27;20483;-61
2022/05/28 01:02:06;;;;;;;1.02;0.70;;;;;;;;;;5139940;27;20216;-61
2022/05/28 01:04:38;;;;;;;3.28;1.20;;;;;;;;;;5139346;27;20202;-61
2022/05/28 01:07:21;;;;;;;1.30;0.60;;;;;;;;;;5140118;27;20201;-60
2022/05/28 01:09:52;;;;;;;1.10;0.80;;;;;;;;;;5138959;27;20194;-61
2022/05/28 01:12:24;;;;;;;1.08;0.80;;;;;;;;;;5138919;27;20206;-61
2022/05/28 01:14:57;;;;;;;1.20;0.90;;;;;;;;;;5139685;27;20473;-61
2022/05/28 01:17:29;;;;;;;1.10;0.70;;;;;;;;;;5139361;27;20213;-60
2022/05/28 01:20:03;;;;;;;1.98;1.00;;;;;;;;;;5139447;27;20217;-60
2022/05/28 01:22:37;;;;;;;1.27;0.80;;;;;;;;;;5139383;27;20662;-61
2022/05/28 01:25:09;;;;;;;1.92;0.90;;;;;;;;;;5139718;27;20202;-61
2022/05/28 01:27:41;;;;;;;1.02;0.73;;;;;;;;;;5138986;27;20585;-61
2022/05/28 01:30:10;;;;;;;0.95;0.73;;;;;;;;;;5139310;27;20267;-61
2022/05/28 01:32:38;;;;;;;1.10;0.70;;;;;;;;;;5139070;27;20202;-61
2022/05/28 01:35:08;;;;;;;1.13;0.75;;;;;;;;;;5138071;27;20207;-61
2022/05/28 01:37:36;;;;;;;0.90;0.73;;;;;;;;;;5138645;27;20208;-61
2022/05/28 01:40:04;;;;;;;1.80;0.90;;;;;;;;;;5138420;27;20229;-61
2022/05/28 01:42:32;;;;;;;1.20;0.90;;;;;;;;;;5139026;27;20205;-61
2022/05/28 01:45:01;;;;;;;1.27;0.90;;;;;;;;;;5139048;27;20448;-62
2022/05/28 01:47:29;;;;;;;1.20;0.90;;;;;;;;;;5138428;27;20607;-61
2022/05/28 01:49:59;;;;;;;1.02;0.70;;;;;;;;;;5138644;27;20206;-61
2022/05/28 01:52:28;;;;;;;1.63;0.70;;;;;;;;;;5138437;27;20202;-61
2022/05/28 01:54:55;;;;;;;1.17;0.88;;;;;;;;;;5138385;27;20198;-61
2022/05/28 01:57:23;;;;;;;1.27;0.90;;;;;;;;;;5138954;27;20245;-61
2022/05/28 01:59:51;;;;;;;1.80;0.80;;;;;;;;;;5138702;27;20210;-61
2022/05/28 02:02:20;;;;;;;1.27;0.80;;;;;;;;;;5138412;27;20203;-61
2022/05/28 02:04:48;;;;;;;1.52;0.80;;;;;;;;;;5138683;27;20209;-60
2022/05/28 02:07:16;;;;;;;1.00;0.82;;;;;;;;;;5138393;27;20202;-61
2022/05/28 02:09:44;;;;;;;1.15;0.45;;;;;;;;;;5138344;27;20214;-61
2022/05/28 02:12:17;;;;;;;1.23;0.80;;;;;;;;;;5138531;27;20202;-60
2022/05/28 02:14:51;;;;;;;1.45;0.80;;;;;;;;;;5137238;27;20286;-60
2022/05/28 02:17:22;;;;;;;1.23;0.70;;;;;;;;;;5138442;27;20202;-61
2022/05/28 02:19:54;;;;;;;0.90;0.80;;;;;;;;;;5138226;27;20212;-61
2022/05/28 02:22:27;;;;;;;1.42;0.70;;;;;;;;;;5138438;27;20207;-61
2022/05/28 02:24:57;;;;;;;1.25;0.70;;;;;;;;;;5138313;27;20202;-61
2022/05/28 02:27:26;;;;;;;0.90;0.60;;;;;;;;;;5137543;27;20194;-61
2022/05/28 02:29:54;;;;;;;1.08;0.80;;;;;;;;;;5137391;27;20305;-61
2022/05/28 02:32:24;;;;;;;1.00;0.80;;;;;;;;;;5137824;27;20202;-61
2022/05/28 02:34:52;;;;;;;0.60;0.60;;;;;;;;;;5137972;27;20226;-61
2022/05/28 02:37:20;;;;;;;1.10;0.80;;;;;;;;;;5138112;27;20202;-61
2022/05/28 02:39:48;;;;;;;1.10;0.73;;;;;;;;;;5137861;27;20202;-61
2022/05/28 02:42:18;;;;;;;0.57;0.43;;;;;;;;;;5137722;27;20209;-61
2022/05/28 02:44:45;;;;;;;1.30;0.70;;;;;;;;;;5137575;27;20205;-61
2022/05/28 02:47:13;;;;;;;1.10;0.80;;;;;;;;;;5137842;27;20202;-61
2022/05/28 02:49:41;;;;;;;0.95;0.60;;;;;;;;;;5138318;27;20214;-61
2022/05/28 02:52:09;;;;;;;2.22;0.80;;;;;;;;;;5137991;27;20565;-61
2022/05/28 02:54:37;;;;;;;1.10;0.65;;;;;;;;;;5137890;27;20233;-61
2022/05/28 02:57:05;;;;;;;2.30;0.70;;;;;;;;;;5137550;28;20230;-61
2022/05/28 02:59:33;;;;;;;2.13;0.75;;;;;;;;;;5137265;28;20650;-60
2022/05/28 03:02:00;;;;;;;1.52;0.90;;;;;;;;;;5137922;28;20221;-61
2022/05/28 03:04:28;;;;;;;1.50;0.80;;;;;;;;;;5137380;28;20198;-61
2022/05/28 03:06:56;;;;;;;0.75;0.43;;;;;;;;;;5137901;28;20198;-61
2022/05/28 03:09:24;;;;;;;0.57;0.57;;;;;;;;;;5137910;28;20213;-61
2022/05/28 03:11:51;;;;;;;1.02;0.68;;;;;;;;;;5137225;28;20198;-60
2022/05/28 03:14:19;;;;;;;1.08;0.55;;;;;;;;;;5137556;28;20226;-61
2022/05/28 03:16:46;;;;;;;2.05;0.80;;;;;;;;;;5137473;28;20208;-60
2022/05/28 03:19:14;;;;;;;1.30;0.70;;;;;;;;;;5137499;28;20213;-61
2022/05/28 03:21:41;;;;;;;1.25;0.60;;;;;;;;;;5137663;28;20201;-61
2022/05/28 03:24:10;;;;;;;0.90;0.80;;;;;;;;;;5137084;28;20202;-61
2022/05/28 03:26:38;;;;;;;1.40;0.60;;;;;;;;;;5137786;28;20202;-61
2022/05/28 03:29:05;;;;;;;1.33;0.60;;;;;;;;;;5137519;28;20476;-61
2022/05/28 03:31:33;;;;;;;0.75;0.70;;;;;;;;;;5137297;28;20655;-61
2022/05/28 03:34:00;;;;;;;0.60;0.50;;;;;;;;;;5137719;28;20230;-61
2022/05/28 03:36:28;;;;;;;1.23;0.70;;;;;;;;;;5137006;28;20218;-61
2022/05/28 03:38:56;;;;;;;1.58;0.73;;;;;;;;;;5136809;28;20581;-60
2022/05/28 03:41:27;;;;;;;1.27;0.80;;;;;;;;;;5136490;28;20480;-61
2022/05/28 03:43:54;;;;;;;0.80;0.50;;;;;;;;;;5138227;27;20245;-60
2022/05/28 03:46:23;;;;;;;1.20;0.73;;;;;;;;;;5140971;27;20198;-60
2022/05/28 03:48:51;;;;;;;0.98;0.60;;;;;;;;;;5140971;27;20214;-61
2022/05/28 03:51:18;;;;;;;1.15;0.50;;;;;;;;;;5140893;27;20221;-61
2022/05/28 03:53:45;;;;;;;0.98;0.60;;;;;;;;;;5141419;27;20597;-60
2022/05/28 03:56:13;;;;;;;1.13;0.60;;;;;;;;;;5140789;27;20234;-61
2022/05/28 03:58:42;;;;;;;1.02;0.65;;;;;;;;;;5140336;27;20581;-61
2022/05/28 04:01:09;;;;;;;1.15;0.70;;;;;;;;;;5139291;27;20202;-60
2022/05/28 04:03:37;;;;;;;1.13;0.77;;;;;;;;;;5140696;27;20210;-60
2022/05/28 04:06:04;;;;;;;1.27;0.75;;;;;;;;;;5140335;27;20194;-61
2022/05/28 04:08:32;;;;;;;0.63;0.50;;;;;;;;;;5139963;27;20249;-60
2022/05/28 04:10:59;;;;;;;0.90;0.60;;;;;;;;;;5140614;27;20202;-61
2022/05/28 04:13:26;;;;;;;1.50;0.60;;;;;;;;;;5140564;27;20573;-61
2022/05/28 04:15:56;;;;;;;0.90;0.50;;;;;;;;;;5140743;27;20202;-61
2022/05/28 04:18:24;;;;;;;1.15;0.65;;;;;;;;;;5139865;27;20298;-61
2022/05/28 04:20:51;;;;;;;0.70;0.40;;;;;;;;;;5140608;27;20217;-61
2022/05/28 04:23:19;;;;;;;1.63;0.65;;;;;;;;;;5140731;27;20203;-60
2022/05/28 04:25:46;;;;;;;0.88;0.68;;;;;;;;;;5140858;27;20503;-61
2022/05/28 04:28:14;;;;;;;0.50;0.50;;;;;;;;;;5140725;27;20581;-61
2022/05/28 04:30:41;;;;;;;0.95;0.52;;;;;;;;;;5140753;27;20210;-60
2022/05/28 04:33:10;;;;;;;0.80;0.70;;;;;;;;;;5140167;27;20202;-60
2022/05/28 04:35:37;;;;;;;1.25;0.63;;;;;;;;;;5139992;27;20225;-61
2022/05/28 04:38:05;;;;;;;1.27;0.60;;;;;;;;;;5140421;27;20202;-61
2022/05/28 04:40:32;;;;;;;0.73;0.60;;;;;;;;;;5140767;27;20202;-61
2022/05/28 04:43:00;;;;;;;0.75;0.40;;;;;;;;;;5140193;27;20603;-60
2022/05/28 04:45:27;;;;;;;1.02;0.57;;;;;;;;;;5139948;27;20193;-61
2022/05/28 04:47:55;;;;;;;0.82;0.50;;;;;;;;;;5140205;27;20214;-61
2022/05/28 04:50:24;;;;;;;1.77;0.80;;;;;;;;;;5139811;27;20202;-61
2022/05/28 04:52:51;;;;;;;0.60;0.40;;;;;;;;;;5139367;27;20202;-61
2022/05/28 04:55:19;;;;;;;0.50;0.45;;;;;;;;;;5139251;27;20218;-60
2022/05/28 04:57:48;;;;;;;0.95;0.50;;;;;;;;;;5138976;27;20233;-60
2022/05/28 05:00:16;;;;;;;1.35;0.50;;;;;;;;;;5139909;27;20210;-61
2022/05/28 05:02:43;;;;;;;1.45;0.60;;;;;;;;;;5139571;27;20582;-62
2022/05/28 05:05:11;;;;;;;0.77;0.60;;;;;;;;;;5139792;27;20206;-61
2022/05/28 05:07:40;;;;;;;1.05;0.82;;;;;;;;;;5139781;27;20213;-61
2022/05/28 05:10:08;;;;;;;0.57;0.50;;;;;;;;;;5139310;27;20215;-61
2022/05/28 05:12:35;;;;;;;0.77;0.50;;;;;;;;;;5138220;27;20202;-61
2022/05/28 05:15:03;;;;;;;0.70;0.60;;;;;;;;;;5138676;27;20617;-61
2022/05/28 05:17:30;;;;;;;0.75;0.65;;;;;;;;;;5139044;27;20205;-61
2022/05/28 05:19:58;;;;;;;0.88;0.68;;;;;;;;;;5139239;27;20202;-61
2022/05/28 05:22:25;;;;;;;1.75;0.70;;;;;;;;;;5139060;27;20202;-61
2022/05/28 05:24:54;;;;;;;1.10;0.70;;;;;;;;;;5139145;27;20490;-61
2022/05/28 05:27:22;;;;;;;1.52;0.60;;;;;;;;;;5139461;27;20203;-61
2022/05/28 05:29:49;;;;;;;0.60;0.60;;;;;;;;;;5138281;27;20202;-60
2022/05/28 05:32:16;;;;;;;1.30;0.70;;;;;;;;;;5138021;27;20210;-61
2022/05/28 05:34:45;;;;;;;0.80;0.57;;;;;;;;;;5138841;27;20301;-61
2022/05/28 05:37:13;;;;;;;1.33;0.55;;;;;;;;;;5139113;27;20552;-61
2022/05/28 05:39:41;;;;;;;1.00;0.60;;;;;;;;;;5138157;27;20206;-61
2022/05/28 05:42:10;;;;;;;0.63;0.60;;;;;;;;;;5137996;27;20203;-61
2022/05/28 05:44:38;;;;;;;0.88;0.60;;;;;;;;;;5138895;27;20224;-61
2022/05/28 05:47:06;;;;;;;1.15;0.60;;;;;;;;;;5138776;27;20206;-61
2022/05/28 05:49:34;;;;;;;1.10;0.50;;;;;;;;;;5137737;27;20595;-61
2022/05/28 05:52:02;;;;;;;1.02;0.60;;;;;;;;;;5137142;27;20311;-61
2022/05/28 05:54:30;;;;;;;0.75;0.55;;;;;;;;;;5137986;27;20232;-61
2022/05/28 05:56:57;;;;;;;1.38;0.60;;;;;;;;;;5137366;27;20512;-61
2022/05/28 05:59:26;;;;;;;1.10;0.60;;;;;;;;;;5137255;27;20206;-61
2022/05/28 06:01:53;;;;;;;0.70;0.50;;;;;;;;;;5137367;27;20297;-61
2022/05/28 06:04:21;;;;;;;1.05;0.50;;;;;;;;;;5137639;27;20491;-61
2022/05/28 06:06:48;;;;;;;1.42;0.60;;;;;;;;;;5137439;27;20224;-60
2022/05/28 06:09:15;;;;;;;1.45;0.70;;;;;;;;;;5135788;27;20208;-61
2022/05/28 06:11:43;;;;;;;1.35;0.70;;;;;;;;;;5137274;27;20205;-61
2022/05/28 06:14:10;;;;;;;0.75;0.63;;;;;;;;;;5137191;27;20226;-61
2022/05/28 06:16:39;;;;;;;1.00;0.60;;;;;;;;;;5137585;27;20461;-61
2022/05/28 06:19:08;;;;;;;1.20;0.60;;;;;;;;;;5137186;27;20198;-61
2022/05/28 06:21:36;;;;;;;0.90;0.57;;;;;;;;;;5137053;27;20266;-61
2022/05/28 06:24:04;;;;;;;0.85;0.60;;;;;;;;;;5136670;27;20202;-61
2022/05/28 06:26:31;;;;;;;0.90;0.80;;;;;;;;;;5136706;27;20573;-61
2022/05/28 06:28:59;;;;;;;1.38;0.80;;;;;;;;;;5137429;27;20597;-61
2022/05/28 06:31:26;;;;;;;1.08;0.70;;;;;;;;;;5137281;27;20202;-61
2022/05/28 06:33:55;;;;;;;1.15;0.60;;;;;;;;;;5137165;27;20497;-61
2022/05/28 06:36:23;;;;;;;0.65;0.60;;;;;;;;;;5136398;27;20197;-61
2022/05/28 06:38:50;;;;;;;0.82;0.60;;;;;;;;;;5136193;27;20205;-61
2022/05/28 06:41:17;;;;;;;0.82;0.77;;;;;;;;;;5136509;27;20201;-60
2022/05/28 06:43:44;;;;;;;1.55;0.60;;;;;;;;;;5136866;27;20637;-61
2022/05/28 06:46:12;;;;;;;0.80;0.70;;;;;;;;;;5136042;27;20190;-61
2022/05/28 06:48:40;;;;;;;1.30;0.80;;;;;;;;;;5135984;27;20202;-61
2022/05/28 06:51:09;;;;;;;1.58;0.60;;;;;;;;;;5136509;27;20213;-61
2022/05/28 06:53:37;;;;;;;0.80;0.50;;;;;;;;;;5136305;27;20202;-62
2022/05/28 06:56:06;;;;;;;1.30;0.75;;;;;;;;;;5136191;27;20237;-61
2022/05/28 06:58:33;;;;;;;1.13;0.65;;;;;;;;;;5136289;28;20202;-62
2022/05/28 07:01:01;;;;;;;1.50;0.68;;;;;;;;;;5136003;28;20212;-60
2022/05/28 07:03:29;;;;;;;1.05;0.60;;;;;;;;;;5135353;28;20198;-61
2022/05/28 07:05:56;;;;;;;1.55;0.57;;;;;;;;;;5135910;28;20432;-61
2022/05/28 07:08:25;;;;;;;1.58;0.70;;;;;;;;;;5136195;28;20202;-61
2022/05/28 07:10:55;;;;;;;1.00;0.60;;;;;;;;;;5135954;28;20580;-61
2022/05/28 07:13:24;;;;;;;1.52;0.80;;;;;;;;;;5136310;28;20209;-60
2022/05/28 07:15:52;;;;;;;1.05;0.70;;;;;;;;;;5134724;28;20254;-61
2022/05/28 07:18:19;;;;;;;1.42;0.70;;;;;;;;;;5134981;27;20202;-61
2022/05/28 07:20:47;;;;;;;1.42;0.57;;;;;;;;;;5138908;27;20212;-61
2022/05/28 07:23:16;;;;;;;1.45;0.55;;;;;;;;;;5139174;27;20209;-61
2022/05/28 07:25:45;;;;;;;1.00;0.68;;;;;;;;;;5138855;27;20465;-61
2022/05/28 07:28:30;;;;;;;2.28;0.60;;;;;;;;;;5138350;27;20198;-61
2022/05/28 07:30:58;;;;;;;1.05;0.60;;;;;;;;;;5139138;27;20214;-61
2022/05/28 07:33:26;;;;;;;1.25;0.70;;;;;;;;;;5137780;27;20578;-62
2022/05/28 07:35:54;;;;;;;0.93;0.63;;;;;;;;;;5140409;27;20232;-60
2022/05/28 07:38:22;;;;;;;1.17;0.60;;;;;;;;;;5139442;27;20206;-61
2022/05/28 07:40:51;;;;;;;1.95;0.60;;;;;;;;;;5138931;27;20544;-61
2022/05/28 07:43:19;;;;;;;1.73;0.60;;;;;;;;;;5138683;27;20209;-61
2022/05/28 07:45:47;;;;;;;1.48;0.73;;;;;;;;;;5138905;27;20198;-61
2022/05/28 07:48:15;;;;;;;1.70;0.50;;;;;;;;;;5138234;27;20198;-61
2022/05/28 07:50:42;;;;;;;1.50;0.70;;;;;;;;;;5137862;27;20202;-62
2022/05/28 07:53:10;;;;;;;1.08;0.57;;;;;;;;;;5138569;27;20202;-61
2022/05/28 07:55:38;;;;;;;1.65;0.73;;;;;;;;;;5138062;27;20222;-61
2022/05/28 07:58:07;;;;;;;1.30;0.55;;;;;;;;;;5137979;27;20220;-60
2022/05/28 08:00:38;;;;;;;0.60;0.50;;;;;;;;;;5138296;27;20209;-61
2022/05/28 08:03:06;;;;;;;1.55;0.60;;;;;;;;;;5137557;27;20667;-61
2022/05/28 08:05:33;;;;;;;1.15;0.60;;;;;;;;;;5136317;27;20202;-61
2022/05/28 08:08:01;;;;;;;1.27;0.70;;;;;;;;;;5137321;27;20278;-61
2022/05/28 08:10:28;;;;;;;1.15;0.50;;;;;;;;;;5138113;27;20205;-61
2022/05/28 08:12:55;;;;;;;1.00;0.60;;;;;;;;;;5136454;27;20218;-61
2022/05/28 08:15:24;;;;;;;1.70;0.60;;;;;;;;;;5137044;27;20612;-61
2022/05/28 08:17:52;;;;;;;0.95;0.63;;;;;;;;;;5136821;27;20199;-61
2022/05/28 08:20:19;;;;;;;1.08;0.65;;;;;;;;;;5137693;27;20210;-61
2022/05/28 08:25:46;;;;;;;1.63;0.60;;;;;;;;;;5073446;28;20295;-61
2022/05/28 08:28:14;;;;;;;0.88;0.70;;;;;;;;;;5073893;28;20215;-61
2022/05/28 08:30:43;;;;;;;0.52;0.50;;;;;;;;;;5100911;27;20461;-61
2022/05/28 08:33:12;;;;;;;1.55;0.55;;;;;;;;;;5137471;27;20213;-61
2022/05/28 08:35:40;;;;;;;1.42;0.60;;;;;;;;;;5136777;27;20741;-61
2022/05/28 08:38:08;;;;;;;0.50;0.43;;;;;;;;;;5136688;27;20573;-60
2022/05/28 08:40:41;;;;;;;0.95;0.70;;;;;;;;;;5136345;27;20202;-61
2022/05/28 08:43:09;;;;;;;1.23;0.63;;;;;;;;;;5135435;27;20203;-61
2022/05/28 08:45:37;;;;;;;2.30;0.65;;;;;;;;;;5136247;27;20209;-61
2022/05/28 08:48:07;;;;;;;0.80;0.70;;;;;;;;;;5136333;27;20206;-61
2022/05/28 08:50:36;;;;;;;1.75;0.70;;;;;;;;;;5136587;27;20506;-61
2022/05/28 08:53:05;;;;;;;1.63;0.63;;;;;;;;;;5136308;27;20584;-61
2022/05/28 08:55:35;;;;;;;1.05;0.60;;;;;;;;;;5137008;27;20639;-61
2022/05/28 08:58:04;;;;;;;0.70;0.50;;;;;;;;;;5136780;27;20194;-61
2022/05/28 09:00:39;;;;;;;1.15;0.60;;;;;;;;;;5134850;27;20195;-61
2022/05/28 09:03:09;;;;;;;0.77;0.50;;;;;;;;;;5136483;27;20538;-61
2022/05/28 09:05:41;;;;;;;1.25;0.60;;;;;;;;;;5136921;27;20198;-61
2022/05/28 09:08:10;;;;;;;1.38;0.60;;;;;;;;;;5135724;27;20202;-61
2022/05/28 09:10:43;;;;;;;1.15;0.77;;;;;;;;;;5135878;27;20225;-61
2022/05/28 09:13:14;;;;;;;1.58;0.80;;;;;;;;;;5137070;27;20204;-61
2022/05/28 09:15:43;;;;;;;2.03;0.70;;;;;;;;;;5136591;27;20214;-61
2022/05/28 09:18:13;;;;;;;0.95;0.70;;;;;;;;;;5136366;27;20228;-61
2022/05/28 09:20:43;;;;;;;2.08;0.70;;;;;;;;;;5134640;27;20210;-61
2022/05/28 09:23:10;;;;;;;1.50;0.60;;;;;;;;;;5136034;27;20263;-61
2022/05/28 09:25:43;;;;;;;0.95;0.60;;;;;;;;;;5135051;27;20194;-62
2022/05/28 09:28:15;;;;;;;2.13;0.70;;;;;;;;;;5133616;27;20210;-61
2022/05/28 09:30:45;;;;;;;1.35;0.60;;;;;;;;;;5135811;27;20497;-61
2022/05/28 09:33:30;;;;;;;1.63;0.60;;;;;;;;;;5137174;27;20687;-61
2022/05/28 09:36:06;;;;;;;0.93;0.60;;;;;;;;;;5135508;27;20233;-61
2022/05/28 09:38:43;;;;;;;1.00;0.50;;;;;;;;;;5135977;27;20497;-61
2022/05/28 09:41:20;;;;;;;1.13;0.70;;;;;;;;;;5135684;27;20212;-61
2022/05/28 09:43:55;;;;;;;1.70;0.70;;;;;;;;;;5135215;27;20202;-60
2022/05/28 09:46:25;;;;;;;0.90;0.70;;;;;;;;;;5135839;27;20216;-61
2022/05/28 09:49:02;;;;;;;0.93;0.63;;;;;;;;;;5136561;27;20202;-61
2022/05/28 09:51:31;;;;;;;1.17;0.60;;;;;;;;;;5136057;27;20201;-61
2022/05/28 09:54:17;;;;;;;0.80;0.57;;;;;;;;;;5135176;27;20206;-61
2022/05/28 09:56:46;;;;;;;1.35;0.63;;;;;;;;;;5134414;27;20857;-61
2022/05/28 09:59:37;;;;;;;0.88;0.70;;;;;;;;;;5135956;27;20194;-60
2022/05/28 10:02:12;;;;;;;1.52;0.60;;;;;;;;;;5130799;27;20204;-61
2022/05/28 10:04:46;;;;;;;1.52;0.68;;;;;;;;;;5134898;27;20510;-61
2022/05/28 10:07:15;;;;;;;1.20;0.60;;;;;;;;;;5135084;27;20671;-61
2022/05/28 10:09:53;;;;;;;1.35;0.50;;;;;;;;;;5134561;27;20194;-61
2022/05/28 10:12:24;;;;;;;2.30;0.68;;;;;;;;;;5134622;27;20470;-61
2022/05/28 10:14:59;;;;;;;1.00;0.60;;;;;;;;;;5136617;27;20548;-61
2022/05/28 10:17:26;;;;;;;0.88;0.70;;;;;;;;;;5135602;27;20225;-61
2022/05/28 10:19:55;;;;;;;1.13;0.60;;;;;;;;;;5135211;27;20206;-61
2022/05/28 10:22:25;;;;;;;0.85;0.63;;;;;;;;;;5136000;27;20225;-60
2022/05/28 10:24:55;;;;;;;1.02;0.70;;;;;;;;;;5135173;27;20239;-61
2022/05/28 10:27:25;;;;;;;1.73;0.63;;;;;;;;;;5135981;27;20212;-61
2022/05/28 10:29:53;;;;;;;1.23;0.73;;;;;;;;;;5135979;27;20329;-61
2022/05/28 10:32:27;;;;;;;2.50;0.80;;;;;;;;;;5135729;27;20204;-61
2022/05/28 10:35:00;;;;;;;0.77;0.65;;;;;;;;;;5136257;27;20229;-61
2022/05/28 10:37:29;;;;;;;1.55;0.60;;;;;;;;;;5135430;27;20222;-60
2022/05/28 10:40:03;;;;;;;1.48;0.77;;;;;;;;;;5135271;27;20203;-61
2022/05/28 10:42:31;;;;;;;1.15;0.73;;;;;;;;;;5135014;27;20193;-60
2022/05/28 10:44:58;;;;;;;0.50;0.50;;;;;;;;;;5135240;27;20202;-60
2022/05/28 10:47:32;;;;;;;2.53;0.60;;;;;;;;;;5135590;27;20565;-60
2022/05/28 10:50:05;;;;;;;1.75;0.60;;;;;;;;;;5134917;27;20194;-61
2022/05/28 10:52:41;;;;;;;0.95;0.50;;;;;;;;;;5134420;27;20262;-60
2022/05/28 10:55:09;;;;;;;2.78;0.80;;;;;;;;;;5134788;27;20198;-60
2022/05/28 10:57:55;;;;;;;0.90;0.60;;;;;;;;;;5134245;27;20231;-60
2022/05/28 11:00:28;;;;;;;1.40;0.60;;;;;;;;;;5135742;28;20263;-60
2022/05/28 11:03:03;;;;;;;2.60;0.90;;;;;;;;;;5134598;28;20202;-60
2022/05/28 11:05:40;;;;;;;0.95;0.60;;;;;;;;;;5133616;28;20194;-60
2022/05/28 11:08:11;;;;;;;1.20;0.70;;;;;;;;;;5134143;28;20236;-61
2022/05/28 11:10:49;;;;;;;2.22;0.95;;;;;;;;;;5134483;28;20198;-61
2022/05/28 11:13:28;;;;;;;2.15;0.80;;;;;;;;;;5136144;28;20197;-61
2022/05/28 11:16:03;;;;;;;1.77;0.70;;;;;;;;;;5134422;28;20634;-60
2022/05/28 11:18:36;;;;;;;2.08;0.73;;;;;;;;;;5135000;28;20202;-61
2022/05/28 11:21:07;;;;;;;0.85;0.82;;;;;;;;;;5135187;28;20198;-60
2022/05/28 11:23:59;;;;;;;2.15;0.95;;;;;;;;;;5134729;28;20203;-61
2022/05/28 11:26:30;;;;;;;1.35;0.77;;;;;;;;;;5134048;28;20186;-61
2022/05/28 11:29:14;;;;;;;3.85;1.00;;;;;;;;;;5134243;28;20232;-61
2022/05/28 11:31:45;;;;;;;1.58;0.90;;;;;;;;;;5133667;28;20217;-60
2022/05/28 11:34:21;;;;;;;1.95;0.93;;;;;;;;;;5134344;28;20200;-60
2022/05/28 11:36:50;;;;;;;1.80;0.90;;;;;;;;;;5132467;28;20236;-60
2022/05/28 11:39:22;;;;;;;2.13;0.90;;;;;;;;;;5132661;28;20301;-61
2022/05/28 11:41:51;;;;;;;3.30;1.35;;;;;;;;;;5131682;28;20202;-60
2022/05/28 11:44:25;;;;;;;2.28;1.20;;;;;;;;;;5131575;28;20599;-61
2022/05/28 11:46:56;;;;;;;1.92;1.10;;;;;;;;;;5132477;28;20396;-61
2022/05/28 11:52:13;;;;;;;3.20;1.30;;;;;;;;;;5132154;28;20290;-60
2022/05/28 11:54:43;;;;;;;2.88;1.13;;;;;;;;;;5132994;28;20230;-60
2022/05/28 11:57:14;;;;;;;1.77;1.17;;;;;;;;;;5131622;28;20245;-60
2022/05/28 11:59:44;;;;;;;2.15;1.20;;;;;;;;;;5132092;28;20202;-60
2022/05/28 12:02:15;;;;;;;2.70;1.17;;;;;;;;;;5131229;28;20520;-61
2022/05/28 12:04:43;;;;;;;1.88;1.10;;;;;;;;;;5131129;27;20199;-60
2022/05/28 12:07:12;;;;;;;4.10;1.45;;;;;;;;;;5133786;27;20198;-60
2022/05/28 12:09:44;;;;;;;3.30;1.27;;;;;;;;;;5136424;27;20202;-60
2022/05/28 12:12:17;;;;;;;2.58;1.45;;;;;;;;;;5136220;27;20206;-61
2022/05/28 12:14:47;;;;;;;2.58;1.20;;;;;;;;;;5135398;27;20194;-60
2022/05/28 12:17:25;;;;;;;1.63;0.95;;;;;;;;;;5134680;27;20234;-60
2022/05/28 12:19:54;;;;;;;2.65;1.17;;;;;;;;;;5134534;27;20584;-61
2022/05/28 12:22:29;;;;;;;1.92;1.10;;;;;;;;;;5134749;27;20607;-60
2022/05/28 12:25:03;;;;;;;3.35;1.20;;;;;;;;;;5135425;27;20202;-61
2022/05/28 12:27:37;;;;;;;3.60;1.30;;;;;;;;;;5135511;27;20249;-60
2022/05/28 12:30:08;;;;;;;1.88;1.30;;;;;;;;;;5134849;27;20585;-60
2022/05/28 12:32:43;;;;;;;2.85;1.33;;;;;;;;;;5135546;27;20257;-60
2022/05/28 12:35:24;;;;;;;2.38;1.00;;;;;;;;;;5136439;27;20359;-61
2022/05/28 12:37:53;;;;;;;2.35;1.25;;;;;;;;;;5135030;27;20662;-61
2022/05/28 12:40:30;;;;;;;2.80;1.20;;;;;;;;;;5135387;27;20213;-60
2022/05/28 12:43:00;;;;;;;1.98;1.20;;;;;;;;;;5134535;27;20229;-60
2022/05/28 12:45:37;;;;;;;2.55;1.20;;;;;;;;;;5136070;27;20228;-60
2022/05/28 12:48:06;;;;;;;2.47;1.20;;;;;;;;;;5135416;27;20585;-60
2022/05/28 12:50:39;;;;;;;2.00;1.20;;;;;;;;;;5134490;27;20194;-61
2022/05/28 12:53:09;;;;;;;1.60;1.00;;;;;;;;;;5135414;27;20201;-61
2022/05/28 12:55:39;;;;;;;3.13;1.15;;;;;;;;;;5132864;27;20213;-60
2022/05/28 12:58:08;;;;;;;2.05;0.93;;;;;;;;;;5134730;27;20679;-60
2022/05/28 13:00:51;;;;;;;2.53;1.08;;;;;;;;;;5134029;27;20202;-60
2022/05/28 13:03:19;;;;;;;3.85;1.10;;;;;;;;;;5135118;27;20221;-61
2022/05/28 13:05:49;;;;;;;2.88;1.00;;;;;;;;;;5134658;27;20206;-61
2022/05/28 13:08:22;;;;;;;2.47;1.15;;;;;;;;;;5135494;27;20595;-61
2022/05/28 13:10:54;;;;;;;2.97;1.10;;;;;;;;;;5135294;27;20213;-61
2022/05/28 13:13:33;;;;;;;1.75;1.05;;;;;;;;;;5134453;27;20202;-61
2022/05/28 13:16:09;;;;;;;2.78;1.10;;;;;;;;;;5134922;27;20198;-60
2022/05/28 13:18:44;;;;;;;2.65;1.10;;;;;;;;;;5133735;27;20205;-60
2022/05/28 13:21:18;;;;;;;1.85;0.98;;;;;;;;;;5135232;27;20469;-60
2022/05/28 13:24:00;;;;;;;1.85;1.15;;;;;;;;;;5135033;27;20619;-61
2022/05/28 13:26:47;;;;;;;2.47;1.02;;;;;;;;;;5090201;27;20220;-61
2022/05/28 13:29:22;;;;;;;1.63;0.82;;;;;;;;;;5135527;27;20210;-60
2022/05/28 13:31:51;;;;;;;2.33;0.93;;;;;;;;;;5135341;27;20202;-60
2022/05/28 13:34:20;;;;;;;1.73;1.02;;;;;;;;;;5134098;27;20210;-61
2022/05/28 13:36:47;;;;;;;2.10;1.10;;;;;;;;;;5134276;27;20476;-60
2022/05/28 13:39:15;;;;;;;1.38;0.82;;;;;;;;;;5136140;27;20203;-60
2022/05/28 13:41:46;;;;;;;2.25;0.98;;;;;;;;;;5134462;27;20213;-60
2022/05/28 13:44:14;;;;;;;2.95;1.20;;;;;;;;;;5133215;27;20206;-60
2022/05/28 13:46:47;;;;;;;1.50;0.93;;;;;;;;;;5134888;27;20190;-60
2022/05/28 13:49:16;;;;;;;1.80;1.08;;;;;;;;;;5133322;27;20213;-61
2022/05/28 13:51:48;;;;;;;1.70;1.02;;;;;;;;;;5134167;27;20194;-60
2022/05/28 13:54:15;;;;;;;1.40;1.00;;;;;;;;;;5132627;27;20194;-60
2022/05/28 13:56:51;;;;;;;2.03;1.08;;;;;;;;;;5134135;27;20337;-60
2022/05/28 13:59:29;;;;;;;1.30;0.82;;;;;;;;;;5134067;27;20224;-60
2022/05/28 14:01:56;;;;;;;1.13;0.80;;;;;;;;;;5133265;27;20503;-60
2022/05/28 14:04:25;;;;;;;1.98;0.75;;;;;;;;;;5134591;27;20677;-60
2022/05/28 14:06:54;;;;;;;2.25;0.98;;;;;;;;;;5135589;27;20194;-60
2022/05/28 14:09:22;;;;;;;1.33;0.93;;;;;;;;;;5134690;27;20210;-61
2022/05/28 14:11:51;;;;;;;1.35;1.00;;;;;;;;;;5133852;27;20599;-61
2022/05/28 14:14:20;;;;;;;1.60;0.88;;;;;;;;;;5133897;27;20198;-60
2022/05/28 14:16:48;;;;;;;1.95;0.80;;;;;;;;;;5132686;27;20222;-60
2022/05/28 14:19:18;;;;;;;1.50;0.90;;;;;;;;;;5133412;27;20543;-60
2022/05/28 14:21:50;;;;;;;1.48;0.75;;;;;;;;;;5132520;27;20202;-61
2022/05/28 14:24:20;;;;;;;1.35;0.80;;;;;;;;;;5133116;27;20204;-60
2022/05/28 14:26:49;;;;;;;1.20;0.80;;;;;;;;;;5133361;27;20198;-60
2022/05/28 14:29:19;;;;;;;1.20;0.88;;;;;;;;;;5131045;27;20294;-60
2022/05/28 14:31:47;;;;;;;2.13;1.00;;;;;;;;;;5131374;27;20202;-60
2022/05/28 14:34:16;;;;;;;2.78;1.10;;;;;;;;;;5133021;27;20202;-61
2022/05/28 14:36:50;;;;;;;1.05;0.90;;;;;;;;;;5133010;27;20575;-61
2022/05/28 14:39:18;;;;;;;1.45;0.75;;;;;;;;;;5131241;27;20748;-60
2022/05/28 14:41:48;;;;;;;1.67;1.05;;;;;;;;;;5132242;27;20236;-61
2022/05/28 14:44:18;;;;;;;1.90;0.90;;;;;;;;;;5132829;27;20202;-60
2022/05/28 14:46:47;;;;;;;1.65;0.88;;;;;;;;;;5133170;27;20498;-60
2022/05/28 14:49:19;;;;;;;1.05;0.77;;;;;;;;;;5132355;27;20198;-60
2022/05/28 14:51:47;;;;;;;1.80;0.90;;;;;;;;;;5131292;27;20547;-60
2022/05/28 14:54:22;;;;;;;1.17;0.98;;;;;;;;;;5130753;27;20631;-60
2022/05/28 14:56:50;;;;;;;1.85;0.77;;;;;;;;;;5131371;27;20523;-60
2022/05/28 14:59:24;;;;;;;1.25;0.90;;;;;;;;;;5131036;27;20201;-60
2022/05/28 15:01:54;;;;;;;1.42;0.70;;;;;;;;;;5130526;28;20201;-60
2022/05/28 15:04:31;;;;;;;1.23;0.70;;;;;;;;;;5130980;28;20298;-60